sensor_id;sensor_type;location;lat;lon;timestamp;P1;durP1;ratioP1;P2;durP2;ratioP2
69240;SDS011;56352;55.750;13.198;2023-12-20T00:01:36;11.77;;;2.22;;
69240;SDS011;56352;55.750;13.198;2023-12-20T00:04:02;12.15;;;1.77;;
69240;SDS011;56352;55.750;13.198;2023-12-20T00:06:30;5.15;;;1.60;;
69240;SDS011;56352;55.750;13.198;2023-12-20T00:08:57;10.23;;;2.00;;
69240;SDS011;56352;55.750;13.198;2023-12-20T00:11:26;8.85;;;1.50;;
69240;SDS011;56352;55.750;13.198;2023-12-20T00:13:53;6.28;;;1.30;;
69240;SDS011;56352;55.750;13.198;2023-12-20T00:16:19;4.35;;;1.73;;
69240;SDS011;56352;55.750;13.198;2023-12-20T00:18:46;10.38;;;1.30;;
69240;SDS011;56352;55.750;13.198;2023-12-20T00:21:13;12.40;;;1.70;;
69240;SDS011;56352;55.750;13.198;2023-12-20T00:23:40;7.43;;;1.50;;
69240;SDS011;56352;55.750;13.198;2023-12-20T00:26:06;7.18;;;1.65;;
69240;SDS011;56352;55.750;13.198;2023-12-20T00:28:33;6.03;;;1.52;;
69240;SDS011;56352;55.750;13.198;2023-12-20T00:31:00;5.43;;;1.30;;
69240;SDS011;56352;55.750;13.198;2023-12-20T00:33:27;9.25;;;1.48;;
69240;SDS011;56352;55.750;13.198;2023-12-20T00:35:54;6.78;;;1.48;;
69240;SDS011;56352;55.750;13.198;2023-12-20T00:38:20;7.05;;;1.67;;
69240;SDS011;56352;55.750;13.198;2023-12-20T00:40:47;7.82;;;2.03;;
69240;SDS011;56352;55.750;13.198;2023-12-20T00:43:15;9.38;;;1.63;;
69240;SDS011;56352;55.750;13.198;2023-12-20T00:45:42;8.07;;;2.25;;
69240;SDS011;56352;55.750;13.198;2023-12-20T00:48:09;9.35;;;1.58;;
69240;SDS011;56352;55.750;13.198;2023-12-20T00:50:36;7.18;;;1.63;;
69240;SDS011;56352;55.750;13.198;2023-12-20T00:53:02;6.72;;;2.10;;
69240;SDS011;56352;55.750;13.198;2023-12-20T00:55:29;5.25;;;1.92;;
69240;SDS011;56352;55.750;13.198;2023-12-20T00:57:56;6.00;;;1.80;;
69240;SDS011;56352;55.750;13.198;2023-12-20T01:00:22;8.35;;;1.98;;
69240;SDS011;56352;55.750;13.198;2023-12-20T01:02:49;4.53;;;1.35;;
69240;SDS011;56352;55.750;13.198;2023-12-20T01:05:18;7.10;;;1.85;;
69240;SDS011;56352;55.750;13.198;2023-12-20T01:07:45;6.28;;;1.77;;
69240;SDS011;56352;55.750;13.198;2023-12-20T01:10:12;6.03;;;2.22;;
69240;SDS011;56352;55.750;13.198;2023-12-20T01:12:39;7.18;;;1.50;;
69240;SDS011;56352;55.750;13.198;2023-12-20T01:15:06;9.38;;;2.40;;
69240;SDS011;56352;55.750;13.198;2023-12-20T01:17:33;7.20;;;1.70;;
69240;SDS011;56352;55.750;13.198;2023-12-20T01:19:59;11.00;;;1.80;;
69240;SDS011;56352;55.750;13.198;2023-12-20T01:22:26;6.82;;;1.75;;
69240;SDS011;56352;55.750;13.198;2023-12-20T01:24:53;6.50;;;1.90;;
69240;SDS011;56352;55.750;13.198;2023-12-20T01:27:19;6.72;;;1.40;;
69240;SDS011;56352;55.750;13.198;2023-12-20T01:29:46;4.68;;;1.23;;
69240;SDS011;56352;55.750;13.198;2023-12-20T01:32:13;10.32;;;1.48;;
69240;SDS011;56352;55.750;13.198;2023-12-20T01:34:39;8.68;;;1.65;;
69240;SDS011;56352;55.750;13.198;2023-12-20T01:37:06;4.95;;;1.38;;
69240;SDS011;56352;55.750;13.198;2023-12-20T01:39:33;6.25;;;1.55;;
69240;SDS011;56352;55.750;13.198;2023-12-20T01:41:59;4.38;;;1.52;;
69240;SDS011;56352;55.750;13.198;2023-12-20T01:44:26;10.98;;;2.97;;
69240;SDS011;56352;55.750;13.198;2023-12-20T01:46:53;5.88;;;1.70;;
69240;SDS011;56352;55.750;13.198;2023-12-20T01:49:20;14.00;;;2.47;;
69240;SDS011;56352;55.750;13.198;2023-12-20T01:51:48;10.63;;;1.92;;
69240;SDS011;56352;55.750;13.198;2023-12-20T01:54:15;5.20;;;1.40;;
69240;SDS011;56352;55.750;13.198;2023-12-20T01:56:42;10.75;;;1.85;;
69240;SDS011;56352;55.750;13.198;2023-12-20T01:59:09;11.13;;;1.77;;
69240;SDS011;56352;55.750;13.198;2023-12-20T02:01:35;4.13;;;1.52;;
69240;SDS011;56352;55.750;13.198;2023-12-20T02:04:02;7.45;;;1.15;;
69240;SDS011;56352;55.750;13.198;2023-12-20T02:06:30;6.75;;;1.40;;
69240;SDS011;56352;55.750;13.198;2023-12-20T02:08:59;5.72;;;1.40;;
69240;SDS011;56352;55.750;13.198;2023-12-20T02:11:26;4.68;;;1.00;;
69240;SDS011;56352;55.750;13.198;2023-12-20T02:13:53;10.35;;;1.45;;
69240;SDS011;56352;55.750;13.198;2023-12-20T02:16:21;6.60;;;1.25;;
69240;SDS011;56352;55.750;13.198;2023-12-20T02:18:48;7.68;;;1.92;;
69240;SDS011;56352;55.750;13.198;2023-12-20T02:21:15;5.65;;;1.48;;
69240;SDS011;56352;55.750;13.198;2023-12-20T02:23:41;11.85;;;1.85;;
69240;SDS011;56352;55.750;13.198;2023-12-20T02:26:08;6.53;;;1.23;;
69240;SDS011;56352;55.750;13.198;2023-12-20T02:28:35;6.22;;;1.35;;
69240;SDS011;56352;55.750;13.198;2023-12-20T02:31:01;12.10;;;1.42;;
69240;SDS011;56352;55.750;13.198;2023-12-20T02:33:29;10.23;;;1.70;;
69240;SDS011;56352;55.750;13.198;2023-12-20T02:35:56;7.63;;;1.20;;
69240;SDS011;56352;55.750;13.198;2023-12-20T02:38:22;8.85;;;1.55;;
69240;SDS011;56352;55.750;13.198;2023-12-20T02:40:49;9.88;;;1.20;;
69240;SDS011;56352;55.750;13.198;2023-12-20T02:43:16;6.25;;;0.95;;
69240;SDS011;56352;55.750;13.198;2023-12-20T02:45:43;7.85;;;1.77;;
69240;SDS011;56352;55.750;13.198;2023-12-20T02:48:09;9.85;;;1.90;;
69240;SDS011;56352;55.750;13.198;2023-12-20T02:50:36;5.65;;;1.17;;
69240;SDS011;56352;55.750;13.198;2023-12-20T02:53:03;5.35;;;1.23;;
69240;SDS011;56352;55.750;13.198;2023-12-20T02:55:30;5.28;;;1.20;;
69240;SDS011;56352;55.750;13.198;2023-12-20T02:57:56;7.75;;;1.13;;
69240;SDS011;56352;55.750;13.198;2023-12-20T03:00:23;8.02;;;1.40;;
69240;SDS011;56352;55.750;13.198;2023-12-20T03:02:50;5.32;;;1.48;;
69240;SDS011;56352;55.750;13.198;2023-12-20T03:05:16;6.38;;;1.40;;
69240;SDS011;56352;55.750;13.198;2023-12-20T03:07:43;8.40;;;1.48;;
69240;SDS011;56352;55.750;13.198;2023-12-20T03:10:11;11.00;;;1.85;;
69240;SDS011;56352;55.750;13.198;2023-12-20T03:12:49;11.55;;;1.13;;
69240;SDS011;56352;55.750;13.198;2023-12-20T03:15:16;13.40;;;1.60;;
69240;SDS011;56352;55.750;13.198;2023-12-20T03:17:42;11.43;;;1.52;;
69240;SDS011;56352;55.750;13.198;2023-12-20T03:20:09;11.60;;;1.58;;
69240;SDS011;56352;55.750;13.198;2023-12-20T03:22:36;10.43;;;1.73;;
69240;SDS011;56352;55.750;13.198;2023-12-20T03:25:02;12.60;;;1.77;;
69240;SDS011;56352;55.750;13.198;2023-12-20T03:27:29;8.48;;;1.73;;
69240;SDS011;56352;55.750;13.198;2023-12-20T03:29:56;11.48;;;1.75;;
69240;SDS011;56352;55.750;13.198;2023-12-20T03:32:23;10.38;;;1.88;;
69240;SDS011;56352;55.750;13.198;2023-12-20T03:34:50;9.10;;;1.60;;
69240;SDS011;56352;55.750;13.198;2023-12-20T03:37:16;9.88;;;1.30;;
69240;SDS011;56352;55.750;13.198;2023-12-20T03:39:43;7.72;;;1.38;;
69240;SDS011;56352;55.750;13.198;2023-12-20T03:42:10;10.40;;;1.45;;
69240;SDS011;56352;55.750;13.198;2023-12-20T03:44:38;6.82;;;1.98;;
69240;SDS011;56352;55.750;13.198;2023-12-20T03:47:06;7.50;;;1.60;;
69240;SDS011;56352;55.750;13.198;2023-12-20T03:49:32;7.07;;;1.63;;
69240;SDS011;56352;55.750;13.198;2023-12-20T03:51:59;7.13;;;1.08;;
69240;SDS011;56352;55.750;13.198;2023-12-20T03:54:26;4.18;;;1.20;;
69240;SDS011;56352;55.750;13.198;2023-12-20T03:56:53;8.30;;;1.40;;
69240;SDS011;56352;55.750;13.198;2023-12-20T03:59:19;7.55;;;1.40;;
69240;SDS011;56352;55.750;13.198;2023-12-20T04:01:46;8.25;;;1.70;;
69240;SDS011;56352;55.750;13.198;2023-12-20T04:04:13;9.20;;;2.00;;
69240;SDS011;56352;55.750;13.198;2023-12-20T04:06:40;7.80;;;1.30;;
69240;SDS011;56352;55.750;13.198;2023-12-20T04:09:07;10.10;;;1.40;;
69240;SDS011;56352;55.750;13.198;2023-12-20T04:11:36;10.55;;;1.17;;
69240;SDS011;56352;55.750;13.198;2023-12-20T04:14:03;10.70;;;1.92;;
69240;SDS011;56352;55.750;13.198;2023-12-20T04:16:34;12.70;;;1.88;;
69240;SDS011;56352;55.750;13.198;2023-12-20T04:19:01;9.32;;;1.27;;
69240;SDS011;56352;55.750;13.198;2023-12-20T04:21:27;10.68;;;1.42;;
69240;SDS011;56352;55.750;13.198;2023-12-20T04:23:54;8.43;;;1.27;;
69240;SDS011;56352;55.750;13.198;2023-12-20T04:26:21;6.38;;;1.08;;
69240;SDS011;56352;55.750;13.198;2023-12-20T04:28:47;9.18;;;1.65;;
69240;SDS011;56352;55.750;13.198;2023-12-20T04:31:16;7.45;;;1.25;;
69240;SDS011;56352;55.750;13.198;2023-12-20T04:33:42;6.88;;;1.30;;
69240;SDS011;56352;55.750;13.198;2023-12-20T04:36:09;9.68;;;1.40;;
69240;SDS011;56352;55.750;13.198;2023-12-20T04:38:36;11.05;;;1.95;;
69240;SDS011;56352;55.750;13.198;2023-12-20T04:41:02;6.90;;;1.52;;
69240;SDS011;56352;55.750;13.198;2023-12-20T04:43:29;10.05;;;2.13;;
69240;SDS011;56352;55.750;13.198;2023-12-20T04:45:56;8.98;;;1.35;;
69240;SDS011;56352;55.750;13.198;2023-12-20T04:48:23;14.32;;;1.60;;
69240;SDS011;56352;55.750;13.198;2023-12-20T04:50:50;7.25;;;1.52;;
69240;SDS011;56352;55.750;13.198;2023-12-20T04:53:16;8.05;;;1.83;;
69240;SDS011;56352;55.750;13.198;2023-12-20T04:55:43;7.88;;;1.48;;
69240;SDS011;56352;55.750;13.198;2023-12-20T04:58:10;14.93;;;2.35;;
69240;SDS011;56352;55.750;13.198;2023-12-20T05:00:36;12.55;;;1.40;;
69240;SDS011;56352;55.750;13.198;2023-12-20T05:03:03;8.02;;;1.40;;
69240;SDS011;56352;55.750;13.198;2023-12-20T05:05:30;10.13;;;1.45;;
69240;SDS011;56352;55.750;13.198;2023-12-20T05:07:57;9.57;;;1.67;;
69240;SDS011;56352;55.750;13.198;2023-12-20T05:10:23;14.57;;;1.92;;
69240;SDS011;56352;55.750;13.198;2023-12-20T05:12:50;9.13;;;1.52;;
69240;SDS011;56352;55.750;13.198;2023-12-20T05:15:17;9.18;;;1.40;;
69240;SDS011;56352;55.750;13.198;2023-12-20T05:17:44;12.13;;;1.80;;
69240;SDS011;56352;55.750;13.198;2023-12-20T05:20:11;8.23;;;2.08;;
69240;SDS011;56352;55.750;13.198;2023-12-20T05:22:37;10.85;;;1.73;;
69240;SDS011;56352;55.750;13.198;2023-12-20T05:25:04;14.60;;;2.22;;
69240;SDS011;56352;55.750;13.198;2023-12-20T05:27:31;9.70;;;1.80;;
69240;SDS011;56352;55.750;13.198;2023-12-20T05:29:58;11.02;;;1.65;;
69240;SDS011;56352;55.750;13.198;2023-12-20T05:32:24;9.43;;;2.13;;
69240;SDS011;56352;55.750;13.198;2023-12-20T05:34:51;5.07;;;1.65;;
69240;SDS011;56352;55.750;13.198;2023-12-20T05:37:18;9.85;;;1.63;;
69240;SDS011;56352;55.750;13.198;2023-12-20T05:39:45;11.77;;;1.60;;
69240;SDS011;56352;55.750;13.198;2023-12-20T05:42:12;14.20;;;1.83;;
69240;SDS011;56352;55.750;13.198;2023-12-20T05:44:39;7.90;;;1.83;;
69240;SDS011;56352;55.750;13.198;2023-12-20T05:47:08;12.75;;;2.35;;
69240;SDS011;56352;55.750;13.198;2023-12-20T05:49:35;16.45;;;2.65;;
69240;SDS011;56352;55.750;13.198;2023-12-20T05:52:01;10.52;;;1.90;;
69240;SDS011;56352;55.750;13.198;2023-12-20T05:54:28;14.82;;;2.20;;
69240;SDS011;56352;55.750;13.198;2023-12-20T05:56:55;12.15;;;1.92;;
69240;SDS011;56352;55.750;13.198;2023-12-20T05:59:21;9.93;;;1.77;;
69240;SDS011;56352;55.750;13.198;2023-12-20T06:01:48;12.25;;;2.10;;
69240;SDS011;56352;55.750;13.198;2023-12-20T06:04:15;6.05;;;1.35;;
69240;SDS011;56352;55.750;13.198;2023-12-20T06:06:42;9.05;;;2.05;;
69240;SDS011;56352;55.750;13.198;2023-12-20T06:09:09;11.13;;;1.95;;
69240;SDS011;56352;55.750;13.198;2023-12-20T06:11:36;12.20;;;2.30;;
69240;SDS011;56352;55.750;13.198;2023-12-20T06:14:02;10.57;;;2.08;;
69240;SDS011;56352;55.750;13.198;2023-12-20T06:16:29;14.50;;;2.00;;
69240;SDS011;56352;55.750;13.198;2023-12-20T06:18:56;7.93;;;1.92;;
69240;SDS011;56352;55.750;13.198;2023-12-20T06:21:23;10.20;;;1.67;;
69240;SDS011;56352;55.750;13.198;2023-12-20T06:23:49;11.45;;;2.10;;
69240;SDS011;56352;55.750;13.198;2023-12-20T06:26:16;9.55;;;1.73;;
69240;SDS011;56352;55.750;13.198;2023-12-20T06:28:42;10.43;;;1.63;;
69240;SDS011;56352;55.750;13.198;2023-12-20T06:31:09;10.50;;;2.08;;
69240;SDS011;56352;55.750;13.198;2023-12-20T06:33:36;8.05;;;1.48;;
69240;SDS011;56352;55.750;13.198;2023-12-20T06:36:03;10.23;;;1.85;;
69240;SDS011;56352;55.750;13.198;2023-12-20T06:38:30;9.32;;;1.73;;
69240;SDS011;56352;55.750;13.198;2023-12-20T06:40:56;15.85;;;1.50;;
69240;SDS011;56352;55.750;13.198;2023-12-20T06:43:24;10.35;;;1.70;;
69240;SDS011;56352;55.750;13.198;2023-12-20T06:46:11;9.32;;;1.70;;
69240;SDS011;56352;55.750;13.198;2023-12-20T06:48:39;9.63;;;1.60;;
69240;SDS011;56352;55.750;13.198;2023-12-20T06:51:10;7.38;;;1.33;;
69240;SDS011;56352;55.750;13.198;2023-12-20T06:53:38;8.07;;;1.45;;
69240;SDS011;56352;55.750;13.198;2023-12-20T06:56:05;8.82;;;1.77;;
69240;SDS011;56352;55.750;13.198;2023-12-20T06:58:35;7.75;;;1.30;;
69240;SDS011;56352;55.750;13.198;2023-12-20T07:01:03;7.55;;;1.25;;
69240;SDS011;56352;55.750;13.198;2023-12-20T07:03:30;8.50;;;2.03;;
69240;SDS011;56352;55.750;13.198;2023-12-20T07:05:57;6.30;;;1.38;;
69240;SDS011;56352;55.750;13.198;2023-12-20T07:08:24;9.55;;;1.25;;
69240;SDS011;56352;55.750;13.198;2023-12-20T07:10:51;6.28;;;1.25;;
69240;SDS011;56352;55.750;13.198;2023-12-20T07:13:17;8.98;;;1.50;;
69240;SDS011;56352;55.750;13.198;2023-12-20T07:15:44;5.20;;;1.17;;
69240;SDS011;56352;55.750;13.198;2023-12-20T07:18:11;6.18;;;1.20;;
69240;SDS011;56352;55.750;13.198;2023-12-20T07:20:37;5.82;;;1.15;;
69240;SDS011;56352;55.750;13.198;2023-12-20T07:23:05;7.97;;;1.13;;
69240;SDS011;56352;55.750;13.198;2023-12-20T07:25:32;9.30;;;1.45;;
69240;SDS011;56352;55.750;13.198;2023-12-20T07:27:59;7.15;;;1.10;;
69240;SDS011;56352;55.750;13.198;2023-12-20T07:30:26;5.15;;;1.20;;
69240;SDS011;56352;55.750;13.198;2023-12-20T07:32:52;7.65;;;1.00;;
69240;SDS011;56352;55.750;13.198;2023-12-20T07:35:19;6.30;;;1.08;;
69240;SDS011;56352;55.750;13.198;2023-12-20T07:37:46;6.93;;;1.40;;
69240;SDS011;56352;55.750;13.198;2023-12-20T07:40:13;3.28;;;0.73;;
69240;SDS011;56352;55.750;13.198;2023-12-20T07:42:40;2.55;;;0.77;;
69240;SDS011;56352;55.750;13.198;2023-12-20T07:45:06;6.05;;;0.82;;
69240;SDS011;56352;55.750;13.198;2023-12-20T07:47:33;6.05;;;1.27;;
69240;SDS011;56352;55.750;13.198;2023-12-20T07:50:00;4.55;;;1.13;;
69240;SDS011;56352;55.750;13.198;2023-12-20T07:52:27;5.40;;;1.00;;
69240;SDS011;56352;55.750;13.198;2023-12-20T07:54:53;8.60;;;1.40;;
69240;SDS011;56352;55.750;13.198;2023-12-20T07:57:20;4.22;;;0.85;;
69240;SDS011;56352;55.750;13.198;2023-12-20T07:59:47;4.30;;;0.63;;
69240;SDS011;56352;55.750;13.198;2023-12-20T08:02:13;5.85;;;0.93;;
69240;SDS011;56352;55.750;13.198;2023-12-20T08:04:40;3.92;;;0.95;;
69240;SDS011;56352;55.750;13.198;2023-12-20T08:07:07;3.42;;;0.90;;
69240;SDS011;56352;55.750;13.198;2023-12-20T08:09:34;2.97;;;0.55;;
69240;SDS011;56352;55.750;13.198;2023-12-20T08:12:03;4.00;;;0.80;;
69240;SDS011;56352;55.750;13.198;2023-12-20T08:14:30;2.97;;;0.80;;
69240;SDS011;56352;55.750;13.198;2023-12-20T08:16:57;3.58;;;0.68;;
69240;SDS011;56352;55.750;13.198;2023-12-20T08:19:24;3.63;;;0.50;;
69240;SDS011;56352;55.750;13.198;2023-12-20T08:21:51;2.60;;;0.75;;
69240;SDS011;56352;55.750;13.198;2023-12-20T08:24:17;3.58;;;0.80;;
69240;SDS011;56352;55.750;13.198;2023-12-20T08:26:44;6.38;;;1.00;;
69240;SDS011;56352;55.750;13.198;2023-12-20T08:29:13;1.17;;;0.65;;
69240;SDS011;56352;55.750;13.198;2023-12-20T08:31:39;2.63;;;0.75;;
69240;SDS011;56352;55.750;13.198;2023-12-20T08:34:06;3.00;;;0.60;;
69240;SDS011;56352;55.750;13.198;2023-12-20T08:36:34;6.15;;;0.93;;
69240;SDS011;56352;55.750;13.198;2023-12-20T08:39:01;1.95;;;0.70;;
69240;SDS011;56352;55.750;13.198;2023-12-20T08:41:29;5.60;;;1.40;;
69240;SDS011;56352;55.750;13.198;2023-12-20T08:43:56;2.75;;;0.77;;
69240;SDS011;56352;55.750;13.198;2023-12-20T08:46:23;5.00;;;0.98;;
69240;SDS011;56352;55.750;13.198;2023-12-20T08:48:49;8.15;;;1.52;;
69240;SDS011;56352;55.750;13.198;2023-12-20T08:51:16;2.45;;;0.60;;
69240;SDS011;56352;55.750;13.198;2023-12-20T08:53:43;3.80;;;0.60;;
69240;SDS011;56352;55.750;13.198;2023-12-20T08:56:11;1.77;;;0.60;;
69240;SDS011;56352;55.750;13.198;2023-12-20T08:58:38;5.13;;;0.75;;
69240;SDS011;56352;55.750;13.198;2023-12-20T09:01:05;2.50;;;0.40;;
69240;SDS011;56352;55.750;13.198;2023-12-20T09:03:32;3.72;;;0.57;;
69240;SDS011;56352;55.750;13.198;2023-12-20T09:05:58;3.50;;;0.68;;
69240;SDS011;56352;55.750;13.198;2023-12-20T09:08:25;2.90;;;0.70;;
69240;SDS011;56352;55.750;13.198;2023-12-20T09:10:52;1.52;;;0.65;;
69240;SDS011;56352;55.750;13.198;2023-12-20T09:13:18;3.33;;;0.80;;
69240;SDS011;56352;55.750;13.198;2023-12-20T09:15:45;3.40;;;0.50;;
69240;SDS011;56352;55.750;13.198;2023-12-20T09:18:12;3.42;;;0.63;;
69240;SDS011;56352;55.750;13.198;2023-12-20T09:20:38;4.30;;;0.70;;
69240;SDS011;56352;55.750;13.198;2023-12-20T09:23:09;2.08;;;0.88;;
69240;SDS011;56352;55.750;13.198;2023-12-20T09:25:36;2.20;;;0.50;;
69240;SDS011;56352;55.750;13.198;2023-12-20T09:28:02;4.10;;;0.80;;
69240;SDS011;56352;55.750;13.198;2023-12-20T09:30:29;2.17;;;0.50;;
69240;SDS011;56352;55.750;13.198;2023-12-20T09:32:56;2.67;;;0.60;;
69240;SDS011;56352;55.750;13.198;2023-12-20T09:35:23;3.13;;;0.90;;
69240;SDS011;56352;55.750;13.198;2023-12-20T09:37:50;2.85;;;0.40;;
69240;SDS011;56352;55.750;13.198;2023-12-20T09:40:20;1.60;;;0.50;;
69240;SDS011;56352;55.750;13.198;2023-12-20T09:43:08;1.92;;;0.52;;
69240;SDS011;56352;55.750;13.198;2023-12-20T09:45:37;2.33;;;0.60;;
69240;SDS011;56352;55.750;13.198;2023-12-20T09:50:33;5.22;;;0.80;;
69240;SDS011;56352;55.750;13.198;2023-12-20T09:53:00;3.80;;;0.73;;
69240;SDS011;56352;55.750;13.198;2023-12-20T09:55:27;3.25;;;1.33;;
69240;SDS011;56352;55.750;13.198;2023-12-20T09:57:56;4.17;;;0.77;;
69240;SDS011;56352;55.750;13.198;2023-12-20T10:00:23;6.97;;;1.00;;
69240;SDS011;56352;55.750;13.198;2023-12-20T10:02:59;7.63;;;1.27;;
69240;SDS011;56352;55.750;13.198;2023-12-20T10:05:30;5.47;;;1.05;;
69240;SDS011;56352;55.750;13.198;2023-12-20T10:07:58;3.85;;;0.73;;
69240;SDS011;56352;55.750;13.198;2023-12-20T10:10:26;4.88;;;1.75;;
69240;SDS011;56352;55.750;13.198;2023-12-20T10:13:08;6.35;;;1.33;;
69240;SDS011;56352;55.750;13.198;2023-12-20T10:15:36;6.68;;;1.05;;
69240;SDS011;56352;55.750;13.198;2023-12-20T10:18:04;3.40;;;1.35;;
69240;SDS011;56352;55.750;13.198;2023-12-20T10:20:31;3.92;;;0.90;;
69240;SDS011;56352;55.750;13.198;2023-12-20T10:22:58;4.80;;;0.95;;
69240;SDS011;56352;55.750;13.198;2023-12-20T10:25:26;8.23;;;1.60;;
69240;SDS011;56352;55.750;13.198;2023-12-20T10:30:40;8.93;;;1.00;;
69240;SDS011;56352;55.750;13.198;2023-12-20T10:33:08;3.67;;;0.77;;
69240;SDS011;56352;55.750;13.198;2023-12-20T10:35:37;4.82;;;0.88;;
69240;SDS011;56352;55.750;13.198;2023-12-20T10:38:06;5.82;;;0.88;;
69240;SDS011;56352;55.750;13.198;2023-12-20T10:40:36;5.82;;;1.00;;
69240;SDS011;56352;55.750;13.198;2023-12-20T10:43:04;8.63;;;1.27;;
69240;SDS011;56352;55.750;13.198;2023-12-20T10:45:31;5.78;;;1.17;;
69240;SDS011;56352;55.750;13.198;2023-12-20T10:47:58;4.07;;;1.08;;
69240;SDS011;56352;55.750;13.198;2023-12-20T10:50:27;6.55;;;1.10;;
69240;SDS011;56352;55.750;13.198;2023-12-20T10:52:54;5.85;;;1.02;;
69240;SDS011;56352;55.750;13.198;2023-12-20T10:55:25;3.33;;;0.95;;
69240;SDS011;56352;55.750;13.198;2023-12-20T10:58:11;6.13;;;1.50;;
69240;SDS011;56352;55.750;13.198;2023-12-20T11:00:39;5.70;;;1.52;;
69240;SDS011;56352;55.750;13.198;2023-12-20T11:03:09;2.65;;;0.98;;
69240;SDS011;56352;55.750;13.198;2023-12-20T11:05:53;4.82;;;1.20;;
69240;SDS011;56352;55.750;13.198;2023-12-20T11:13:34;5.07;;;1.17;;
69240;SDS011;56352;55.750;13.198;2023-12-20T11:16:03;6.95;;;1.48;;
69240;SDS011;56352;55.750;13.198;2023-12-20T11:18:30;11.07;;;1.38;;
69240;SDS011;56352;55.750;13.198;2023-12-20T11:21:15;2.30;;;1.02;;
69240;SDS011;56352;55.750;13.198;2023-12-20T11:23:42;7.90;;;1.50;;
69240;SDS011;56352;55.750;13.198;2023-12-20T11:26:09;5.43;;;1.33;;
69240;SDS011;56352;55.750;13.198;2023-12-20T11:28:35;7.13;;;1.15;;
69240;SDS011;56352;55.750;13.198;2023-12-20T11:31:02;7.32;;;1.30;;
69240;SDS011;56352;55.750;13.198;2023-12-20T11:33:36;3.97;;;1.05;;
69240;SDS011;56352;55.750;13.198;2023-12-20T11:36:06;3.92;;;1.13;;
69240;SDS011;56352;55.750;13.198;2023-12-20T11:38:49;8.25;;;1.45;;
69240;SDS011;56352;55.750;13.198;2023-12-20T11:41:22;7.28;;;2.60;;
69240;SDS011;56352;55.750;13.198;2023-12-20T11:46:18;5.15;;;0.88;;
69240;SDS011;56352;55.750;13.198;2023-12-20T11:48:45;5.35;;;1.10;;
69240;SDS011;56352;55.750;13.198;2023-12-20T11:51:14;7.40;;;1.07;;
69240;SDS011;56352;55.750;13.198;2023-12-20T11:53:41;6.65;;;1.30;;
69240;SDS011;56352;55.750;13.198;2023-12-20T11:56:08;2.92;;;0.70;;
69240;SDS011;56352;55.750;13.198;2023-12-20T11:58:36;4.20;;;0.95;;
69240;SDS011;56352;55.750;13.198;2023-12-20T12:01:03;5.43;;;1.00;;
69240;SDS011;56352;55.750;13.198;2023-12-20T12:03:34;6.35;;;1.10;;
69240;SDS011;56352;55.750;13.198;2023-12-20T12:06:01;7.00;;;1.65;;
69240;SDS011;56352;55.750;13.198;2023-12-20T12:08:31;8.48;;;1.40;;
69240;SDS011;56352;55.750;13.198;2023-12-20T12:10:58;6.10;;;0.95;;
69240;SDS011;56352;55.750;13.198;2023-12-20T12:13:25;6.97;;;1.10;;
69240;SDS011;56352;55.750;13.198;2023-12-20T12:15:55;4.22;;;0.80;;
69240;SDS011;56352;55.750;13.198;2023-12-20T12:18:21;3.78;;;1.00;;
69240;SDS011;56352;55.750;13.198;2023-12-20T12:20:48;1.75;;;0.75;;
69240;SDS011;56352;55.750;13.198;2023-12-20T12:23:22;2.20;;;0.60;;
69240;SDS011;56352;55.750;13.198;2023-12-20T12:25:50;2.58;;;0.70;;
69240;SDS011;56352;55.750;13.198;2023-12-20T12:28:16;5.60;;;0.70;;
69240;SDS011;56352;55.750;13.198;2023-12-20T12:30:55;8.40;;;1.35;;
69240;SDS011;56352;55.750;13.198;2023-12-20T12:35:49;2.25;;;0.60;;
69240;SDS011;56352;55.750;13.198;2023-12-20T12:38:16;4.68;;;1.10;;
69240;SDS011;56352;55.750;13.198;2023-12-20T12:40:43;3.75;;;0.50;;
69240;SDS011;56352;55.750;13.198;2023-12-20T12:43:10;2.42;;;0.73;;
69240;SDS011;56352;55.750;13.198;2023-12-20T12:45:36;1.90;;;0.50;;
69240;SDS011;56352;55.750;13.198;2023-12-20T12:48:03;1.48;;;0.40;;
69240;SDS011;56352;55.750;13.198;2023-12-20T12:50:31;3.58;;;0.80;;
69240;SDS011;56352;55.750;13.198;2023-12-20T12:52:58;1.58;;;0.60;;
69240;SDS011;56352;55.750;13.198;2023-12-20T12:55:24;3.95;;;0.63;;
69240;SDS011;56352;55.750;13.198;2023-12-20T12:57:51;4.75;;;0.65;;
69240;SDS011;56352;55.750;13.198;2023-12-20T13:00:18;2.33;;;0.63;;
69240;SDS011;56352;55.750;13.198;2023-12-20T13:02:45;1.63;;;0.60;;
69240;SDS011;56352;55.750;13.198;2023-12-20T13:05:12;3.35;;;0.73;;
69240;SDS011;56352;55.750;13.198;2023-12-20T13:07:39;5.03;;;0.63;;
69240;SDS011;56352;55.750;13.198;2023-12-20T13:10:06;7.05;;;1.10;;
69240;SDS011;56352;55.750;13.198;2023-12-20T13:12:32;3.03;;;0.52;;
69240;SDS011;56352;55.750;13.198;2023-12-20T13:14:59;4.88;;;0.80;;
69240;SDS011;56352;55.750;13.198;2023-12-20T13:17:26;3.70;;;1.00;;
69240;SDS011;56352;55.750;13.198;2023-12-20T13:22:23;3.92;;;0.88;;
69240;SDS011;56352;55.750;13.198;2023-12-20T13:24:50;2.80;;;1.23;;
69240;SDS011;56352;55.750;13.198;2023-12-20T13:27:17;1.60;;;0.75;;
69240;SDS011;56352;55.750;13.198;2023-12-20T13:29:43;3.80;;;0.50;;
69240;SDS011;56352;55.750;13.198;2023-12-20T13:32:10;4.05;;;0.82;;
69240;SDS011;56352;55.750;13.198;2023-12-20T13:34:36;2.58;;;0.70;;
69240;SDS011;56352;55.750;13.198;2023-12-20T13:37:03;2.40;;;0.50;;
69240;SDS011;56352;55.750;13.198;2023-12-20T13:39:31;2.13;;;0.40;;
69240;SDS011;56352;55.750;13.198;2023-12-20T13:41:58;1.35;;;0.65;;
69240;SDS011;56352;55.750;13.198;2023-12-20T13:44:26;1.42;;;0.45;;
69240;SDS011;56352;55.750;13.198;2023-12-20T13:46:53;2.97;;;0.55;;
69240;SDS011;56352;55.750;13.198;2023-12-20T13:49:20;5.22;;;0.90;;
69240;SDS011;56352;55.750;13.198;2023-12-20T13:51:47;5.45;;;0.65;;
69240;SDS011;56352;55.750;13.198;2023-12-20T13:54:14;1.65;;;0.55;;
69240;SDS011;56352;55.750;13.198;2023-12-20T13:56:43;1.83;;;0.50;;
69240;SDS011;56352;55.750;13.198;2023-12-20T13:59:27;2.88;;;0.90;;
69240;SDS011;56352;55.750;13.198;2023-12-20T14:01:54;2.78;;;0.65;;
69240;SDS011;56352;55.750;13.198;2023-12-20T14:04:23;3.80;;;0.90;;
69240;SDS011;56352;55.750;13.198;2023-12-20T14:07:08;6.28;;;0.90;;
69240;SDS011;56352;55.750;13.198;2023-12-20T14:09:37;4.03;;;0.70;;
69240;SDS011;56352;55.750;13.198;2023-12-20T14:12:04;7.35;;;1.10;;
69240;SDS011;56352;55.750;13.198;2023-12-20T14:14:31;6.20;;;1.02;;
69240;SDS011;56352;55.750;13.198;2023-12-20T14:16:58;3.85;;;1.73;;
69240;SDS011;56352;55.750;13.198;2023-12-20T14:19:24;4.13;;;1.17;;
69240;SDS011;56352;55.750;13.198;2023-12-20T14:21:51;3.55;;;1.10;;
69240;SDS011;56352;55.750;13.198;2023-12-20T14:24:18;3.75;;;1.20;;
69240;SDS011;56352;55.750;13.198;2023-12-20T14:26:44;2.45;;;1.00;;
69240;SDS011;56352;55.750;13.198;2023-12-20T14:29:11;4.30;;;1.15;;
69240;SDS011;56352;55.750;13.198;2023-12-20T14:31:38;2.83;;;1.00;;
69240;SDS011;56352;55.750;13.198;2023-12-20T14:34:06;3.80;;;1.40;;
69240;SDS011;56352;55.750;13.198;2023-12-20T14:36:34;5.15;;;1.40;;
69240;SDS011;56352;55.750;13.198;2023-12-20T14:39:01;4.40;;;1.25;;
69240;SDS011;56352;55.750;13.198;2023-12-20T14:41:30;5.33;;;1.10;;
69240;SDS011;56352;55.750;13.198;2023-12-20T14:43:58;5.57;;;1.08;;
69240;SDS011;56352;55.750;13.198;2023-12-20T14:46:26;9.13;;;1.38;;
69240;SDS011;56352;55.750;13.198;2023-12-20T14:48:53;4.95;;;1.20;;
69240;SDS011;56352;55.750;13.198;2023-12-20T14:51:20;3.80;;;1.20;;
69240;SDS011;56352;55.750;13.198;2023-12-20T14:53:46;4.38;;;1.60;;